Time;durP1;ratioP1;P1;durP2;ratioP2;P2;SDS_P1;SDS_P2;PMS_P1;PMS_P2;Temp;Humidity;BMP_temperature;BMP_pressure;BME280_temperature;BME280_humidity;BME280_pressure;Samples;Min_cycle;Max_cycle;Signal;HPM_P1;HPM_P2
2021/03/14 00:02:13;;;;;;;61.13;37.92;;;;;;;;;;5014977;28;20045;-67
2021/03/14 00:04:40;;;;;;;55.00;35.25;;;;;;;;;;5015291;28;20030;-66
2021/03/14 00:07:06;;;;;;;57.25;36.45;;;;;;;;;;4997532;28;20022;-66
2021/03/14 00:09:33;;;;;;;55.00;34.80;;;;;;;;;;5015079;28;20115;-67
2021/03/14 00:11:59;;;;;;;56.70;36.83;;;;;;;;;;5014705;28;20018;-66
2021/03/14 00:14:25;;;;;;;61.47;40.05;;;;;;;;;;5014911;28;20107;-69
2021/03/14 00:16:52;;;;;;;85.47;46.17;;;;;;;;;;5014970;28;20064;-67
2021/03/14 00:19:18;;;;;;;82.88;41.22;;;;;;;;;;4996985;28;20076;-66
2021/03/14 00:21:45;;;;;;;68.68;37.63;;;;;;;;;;5014588;28;20053;-68
2021/03/14 00:24:11;;;;;;;83.90;45.00;;;;;;;;;;5014830;28;20032;-68
2021/03/14 00:26:37;;;;;;;81.72;42.42;;;;;;;;;;5014482;28;20029;-68
2021/03/14 00:29:05;;;;;;;80.78;42.60;;;;;;;;;;5014792;28;20076;-67
2021/03/14 00:31:32;;;;;;;65.55;36.60;;;;;;;;;;4997084;28;20026;-68
2021/03/14 00:33:58;;;;;;;58.30;35.45;;;;;;;;;;4996734;28;20092;-68
2021/03/14 00:36:24;;;;;;;58.65;35.75;;;;;;;;;;5014325;28;20059;-68
2021/03/14 00:38:50;;;;;;;47.08;30.33;;;;;;;;;;5014579;28;20018;-67
2021/03/14 00:41:16;;;;;;;45.97;29.02;;;;;;;;;;5014014;28;20013;-68
2021/03/14 00:43:42;;;;;;;47.97;31.10;;;;;;;;;;5014230;28;20045;-67
2021/03/14 00:46:09;;;;;;;45.05;29.90;;;;;;;;;;5002451;28;20122;-68
2021/03/14 00:48:35;;;;;;;54.33;32.38;;;;;;;;;;5014144;28;20025;-69
2021/03/14 00:51:01;;;;;;;45.42;31.50;;;;;;;;;;5014386;28;20089;-66
2021/03/14 00:53:27;;;;;;;54.88;32.33;;;;;;;;;;5013826;28;20386;-68
2021/03/14 00:55:53;;;;;;;45.95;29.08;;;;;;;;;;5013950;28;20454;-68
2021/03/14 00:58:19;;;;;;;46.55;29.35;;;;;;;;;;5014510;28;20017;-67
2021/03/14 01:00:46;;;;;;;45.90;28.08;;;;;;;;;;5013827;28;20351;-69
2021/03/14 01:03:12;;;;;;;42.67;26.45;;;;;;;;;;5013517;28;20018;-69
2021/03/14 01:05:38;;;;;;;41.92;26.33;;;;;;;;;;4996587;28;20026;-69
2021/03/14 01:08:04;;;;;;;45.83;28.40;;;;;;;;;;5013905;28;20029;-68
2021/03/14 01:10:30;;;;;;;44.40;28.75;;;;;;;;;;5013798;28;20049;-68
2021/03/14 01:12:57;;;;;;;31.75;22.35;;;;;;;;;;4996233;28;20026;-67
2021/03/14 01:15:23;;;;;;;38.38;23.30;;;;;;;;;;5013685;28;20091;-69
2021/03/14 01:17:49;;;;;;;36.45;24.17;;;;;;;;;;5014079;28;20029;-69
2021/03/14 01:20:17;;;;;;;38.25;25.23;;;;;;;;;;4996444;28;20109;-70
2021/03/14 01:22:43;;;;;;;37.78;24.27;;;;;;;;;;5013808;28;20030;-70
2021/03/14 01:25:10;;;;;;;33.63;23.10;;;;;;;;;;5013787;28;20477;-68
2021/03/14 01:27:36;;;;;;;37.83;21.70;;;;;;;;;;4996371;28;20022;-66
2021/03/14 01:30:04;;;;;;;37.08;21.95;;;;;;;;;;4995913;28;20352;-67
2021/03/14 01:32:30;;;;;;;36.00;21.48;;;;;;;;;;5013953;28;20021;-68
2021/03/14 01:34:56;;;;;;;30.33;20.50;;;;;;;;;;5014110;28;20029;-67
2021/03/14 01:37:24;;;;;;;34.13;22.30;;;;;;;;;;4995949;28;20509;-68
2021/03/14 01:39:50;;;;;;;;;;;;;;;;;;4996167;28;20022;-68
2021/03/14 01:42:24;;;;;;;32.58;20.45;;;;;;;;;;5013797;28;19908;-66
2021/03/14 01:44:50;;;;;;;35.92;22.02;;;;;;;;;;5013859;28;20026;-68
2021/03/14 01:47:16;;;;;;;41.17;25.15;;;;;;;;;;4996206;28;20025;-68
2021/03/14 01:49:42;;;;;;;41.55;26.55;;;;;;;;;;5013438;28;20018;-68
2021/03/14 01:52:08;;;;;;;47.60;27.40;;;;;;;;;;5013758;28;20041;-67
2021/03/14 01:54:35;;;;;;;39.10;23.20;;;;;;;;;;4996034;28;20026;-68
2021/03/14 01:57:01;;;;;;;33.45;19.08;;;;;;;;;;5013316;28;20018;-69
2021/03/14 01:59:28;;;;;;;31.50;18.52;;;;;;;;;;4996101;28;20026;-67
2021/03/14 02:01:55;;;;;;;33.30;19.10;;;;;;;;;;5013653;28;20117;-68
2021/03/14 02:04:21;;;;;;;30.97;20.90;;;;;;;;;;5013195;28;20149;-68
2021/03/14 02:06:47;;;;;;;32.53;19.65;;;;;;;;;;5013627;28;20330;-69
2021/03/14 02:09:13;;;;;;;32.00;20.88;;;;;;;;;;5012892;28;20378;-68
2021/03/14 02:11:41;;;;;;;31.52;20.85;;;;;;;;;;5013015;28;20018;-69
2021/03/14 02:14:08;;;;;;;36.75;21.25;;;;;;;;;;5016129;28;20022;-69
2021/03/14 02:16:36;;;;;;;30.63;19.77;;;;;;;;;;4999615;28;20022;-67
2021/03/14 02:19:05;;;;;;;30.10;17.45;;;;;;;;;;4999205;28;20252;-72
2021/03/14 02:21:32;;;;;;;32.90;19.23;;;;;;;;;;5016802;28;20060;-70
2021/03/14 02:24:04;;;;;;;28.40;19.08;;;;;;;;;;5016777;28;20022;-70
2021/03/14 02:26:33;;;;;;;28.50;18.02;;;;;;;;;;4999249;28;20363;-69
2021/03/14 02:29:00;;;;;;;26.45;17.20;;;;;;;;;;5016888;28;20046;-70
2021/03/14 02:31:26;;;;;;;22.55;16.13;;;;;;;;;;5016649;28;20045;-71
2021/03/14 02:33:55;;;;;;;24.63;15.57;;;;;;;;;;4998617;28;20084;-70
2021/03/14 02:36:22;;;;;;;30.45;17.92;;;;;;;;;;4999129;28;20041;-69
2021/03/14 02:38:49;;;;;;;27.88;16.65;;;;;;;;;;5016299;28;20030;-70
2021/03/14 02:41:16;;;;;;;29.83;17.45;;;;;;;;;;5016778;28;20018;-68
2021/03/14 02:43:42;;;;;;;28.35;17.90;;;;;;;;;;5016706;28;20018;-67
2021/03/14 02:46:08;;;;;;;29.80;16.95;;;;;;;;;;4998832;28;20030;-68
2021/03/14 02:48:36;;;;;;;38.33;14.98;;;;;;;;;;4999040;28;20363;-69
2021/03/14 02:51:03;;;;;;;30.67;15.55;;;;;;;;;;4998967;28;20021;-68
2021/03/14 02:53:30;;;;;;;35.35;18.52;;;;;;;;;;4998632;28;20022;-70
2021/03/14 02:55:57;;;;;;;39.83;19.67;;;;;;;;;;4998851;28;20028;-68
2021/03/14 02:58:23;;;;;;;34.13;19.77;;;;;;;;;;5015914;28;20467;-71
2021/03/14 03:00:50;;;;;;;25.00;16.48;;;;;;;;;;5016066;28;20379;-69
2021/03/14 03:03:16;;;;;;;29.50;17.90;;;;;;;;;;5016387;28;20017;-70
2021/03/14 03:05:43;;;;;;;30.15;17.23;;;;;;;;;;5016420;28;20065;-69
2021/03/14 03:08:10;;;;;;;29.45;16.88;;;;;;;;;;4998397;28;20022;-70
2021/03/14 03:10:39;;;;;;;46.03;24.15;;;;;;;;;;4999451;28;20022;-70
2021/03/14 03:13:07;;;;;;;46.20;23.33;;;;;;;;;;5015871;28;20025;-69
2021/03/14 03:15:33;;;;;;;39.25;23.10;;;;;;;;;;4998454;28;20033;-69
2021/03/14 03:18:00;;;;;;;38.03;21.23;;;;;;;;;;5015785;28;20387;-69
2021/03/14 03:20:27;;;;;;;31.38;18.52;;;;;;;;;;4997895;28;20048;-68
2021/03/14 03:22:54;;;;;;;34.13;20.38;;;;;;;;;;5016533;28;20067;-69
2021/03/14 03:25:21;;;;;;;30.20;19.48;;;;;;;;;;4997468;28;20483;-69
2021/03/14 03:27:48;;;;;;;31.23;16.80;;;;;;;;;;4997919;28;20043;-68
2021/03/14 03:30:18;;;;;;;23.23;16.08;;;;;;;;;;4995296;28;20053;-70
2021/03/14 03:32:44;;;;;;;29.08;15.68;;;;;;;;;;4996539;28;20018;-69
2021/03/14 03:35:12;;;;;;;26.88;15.95;;;;;;;;;;4996115;28;20036;-67
2021/03/14 03:37:38;;;;;;;23.35;15.43;;;;;;;;;;4996154;28;20018;-69
2021/03/14 03:40:05;;;;;;;26.55;18.17;;;;;;;;;;4994824;28;20026;-70
2021/03/14 03:42:34;;;;;;;25.02;16.42;;;;;;;;;;4995807;28;20065;-68
2021/03/14 03:45:01;;;;;;;23.50;14.95;;;;;;;;;;4994707;28;20026;-67
2021/03/14 03:47:28;;;;;;;19.70;14.55;;;;;;;;;;4995987;28;20037;-66
2021/03/14 03:49:55;;;;;;;28.88;17.85;;;;;;;;;;4995023;28;20574;-67
2021/03/14 03:52:21;;;;;;;27.70;17.75;;;;;;;;;;4995848;28;20019;-67
2021/03/14 03:54:48;;;;;;;26.35;16.02;;;;;;;;;;4995650;28;20109;-68
2021/03/14 03:57:15;;;;;;;26.58;17.85;;;;;;;;;;4994286;28;20073;-70
2021/03/14 03:59:42;;;;;;;25.50;16.13;;;;;;;;;;4994469;28;20023;-68
2021/03/14 04:02:08;;;;;;;67.75;30.67;;;;;;;;;;4995622;28;20026;-68
2021/03/14 04:04:35;;;;;;;58.13;27.52;;;;;;;;;;4994318;28;20030;-67
2021/03/14 04:07:02;;;;;;;76.80;35.40;;;;;;;;;;4995839;28;20436;-67
2021/03/14 04:09:29;;;;;;;55.63;28.13;;;;;;;;;;4995468;28;20033;-68
2021/03/14 04:11:55;;;;;;;43.50;23.70;;;;;;;;;;4995464;28;20030;-68
2021/03/14 04:14:23;;;;;;;46.07;23.27;;;;;;;;;;4995628;28;20377;-69
2021/03/14 04:16:49;;;;;;;47.60;24.25;;;;;;;;;;4993847;28;20252;-68
2021/03/14 04:19:19;;;;;;;38.13;19.27;;;;;;;;;;4993856;28;20117;-68
2021/03/14 04:21:46;;;;;;;34.17;18.02;;;;;;;;;;4993808;28;20030;-68
2021/03/14 04:24:13;;;;;;;37.17;17.77;;;;;;;;;;4994797;28;20034;-70
2021/03/14 04:26:43;;;;;;;36.40;21.58;;;;;;;;;;4995177;28;20032;-70
2021/03/14 04:29:09;;;;;;;39.15;22.88;;;;;;;;;;4993963;28;20383;-71
2021/03/14 04:31:36;;;;;;;31.23;21.33;;;;;;;;;;4994912;28;20026;-69
2021/03/14 04:34:02;;;;;;;31.85;18.27;;;;;;;;;;4994804;28;20025;-69
2021/03/14 04:36:29;;;;;;;28.98;16.40;;;;;;;;;;4995123;28;20467;-71
2021/03/14 04:38:55;;;;;;;32.17;19.33;;;;;;;;;;4994490;28;20369;-69
2021/03/14 04:41:21;;;;;;;24.73;16.93;;;;;;;;;;4995001;28;20332;-70
2021/03/14 04:43:48;;;;;;;29.45;16.20;;;;;;;;;;4994934;28;20026;-69
2021/03/14 04:46:15;;;;;;;30.95;18.27;;;;;;;;;;4993320;28;20033;-70
2021/03/14 04:48:42;;;;;;;25.95;16.63;;;;;;;;;;4994864;28;20053;-70
2021/03/14 04:51:08;;;;;;;32.83;20.17;;;;;;;;;;4994173;28;20097;-70
2021/03/14 04:53:35;;;;;;;29.40;17.27;;;;;;;;;;4993394;28;20057;-68
2021/03/14 04:56:02;;;;;;;25.38;16.20;;;;;;;;;;4993424;28;20058;-71
2021/03/14 04:58:29;;;;;;;28.10;17.02;;;;;;;;;;4994437;28;20022;-68
2021/03/14 05:00:55;;;;;;;23.75;15.35;;;;;;;;;;4993417;28;20117;-70
2021/03/14 05:03:22;;;;;;;23.67;15.32;;;;;;;;;;4993914;28;20022;-65
2021/03/14 05:05:49;;;;;;;24.83;14.05;;;;;;;;;;4993091;28;20026;-68
2021/03/14 05:08:20;;;;;;;29.13;16.00;;;;;;;;;;4994598;28;20077;-68
2021/03/14 05:10:47;;;;;;;21.65;14.73;;;;;;;;;;4994112;28;20402;-68
2021/03/14 05:13:13;;;;;;;22.27;13.33;;;;;;;;;;4994254;28;20030;-71
2021/03/14 05:15:40;;;;;;;24.90;15.82;;;;;;;;;;4994139;28;20451;-70
2021/03/14 05:18:06;;;;;;;19.57;12.80;;;;;;;;;;4993208;28;20027;-69
2021/03/14 05:20:32;;;;;;;21.80;12.60;;;;;;;;;;4992902;28;20267;-72
2021/03/14 05:22:59;;;;;;;20.95;13.70;;;;;;;;;;4993300;28;20057;-74
2021/03/14 05:25:25;;;;;;;20.08;13.23;;;;;;;;;;4994780;28;20026;-76
2021/03/14 05:27:53;;;;;;;22.95;14.20;;;;;;;;;;4993035;28;20018;-76
2021/03/14 05:30:26;;;;;;;24.90;14.48;;;;;;;;;;4993091;28;20053;-76
2021/03/14 05:32:53;;;;;;;24.08;12.82;;;;;;;;;;4993364;28;20022;-73
2021/03/14 05:35:20;;;;;;;23.20;12.63;;;;;;;;;;4994043;28;20034;-74
2021/03/14 05:37:47;;;;;;;23.63;12.55;;;;;;;;;;4992553;28;20030;-73
2021/03/14 05:40:13;;;;;;;29.40;16.75;;;;;;;;;;4992760;28;20026;-68
2021/03/14 05:42:40;;;;;;;46.38;22.83;;;;;;;;;;4994621;28;20026;-66
2021/03/14 05:45:07;;;;;;;174.63;76.50;;;;;;;;;;4994224;28;20096;-63
2021/03/14 05:47:34;;;;;;;85.05;38.88;;;;;;;;;;4993215;28;20519;-63
2021/03/14 05:50:00;;;;;;;81.50;34.80;;;;;;;;;;4996814;28;20518;-66
2021/03/14 05:52:27;;;;;;;44.45;20.65;;;;;;;;;;4996778;28;20023;-66
2021/03/14 05:54:53;;;;;;;106.15;45.20;;;;;;;;;;4995982;28;20041;-64
2021/03/14 05:57:20;;;;;;;37.72;19.90;;;;;;;;;;4997855;28;20032;-63
2021/03/14 05:59:51;;;;;;;35.60;18.88;;;;;;;;;;4997646;28;20098;-66
2021/03/14 06:02:18;;;;;;;36.92;19.23;;;;;;;;;;4996365;28;20033;-66
2021/03/14 06:04:46;;;;;;;20.05;13.95;;;;;;;;;;4997912;28;20029;-63
2021/03/14 06:07:12;;;;;;;34.50;17.95;;;;;;;;;;4998093;28;20061;-63
2021/03/14 06:09:38;;;;;;;74.60;42.25;;;;;;;;;;4997173;28;20050;-65
2021/03/14 06:12:08;;;;;;;188.80;115.85;;;;;;;;;;4997735;28;20503;-64
2021/03/14 06:14:34;;;;;;;55.63;36.65;;;;;;;;;;4997773;28;20038;-66
2021/03/14 06:17:00;;;;;;;99.25;81.85;;;;;;;;;;4996841;28;20490;-65
2021/03/14 06:19:26;;;;;;;59.92;43.50;;;;;;;;;;4996340;28;20038;-63
2021/03/14 06:21:52;;;;;;;149.82;98.85;;;;;;;;;;4997253;28;20018;-63
2021/03/14 06:24:18;;;;;;;89.65;62.20;;;;;;;;;;4996983;28;20121;-63
2021/03/14 06:26:45;;;;;;;48.70;35.78;;;;;;;;;;4997445;28;20030;-63
2021/03/14 06:29:18;;;;;;;57.85;35.10;;;;;;;;;;5004073;28;20041;-62
2021/03/14 06:31:47;;;;;;;43.25;29.52;;;;;;;;;;5016980;28;20029;-65
2021/03/14 06:34:39;;;;;;;26.73;18.33;;;;;;;;;;5016401;28;20026;-67
2021/03/14 06:37:10;;;;;;;39.47;31.25;;;;;;;;;;4994671;28;20079;-65
2021/03/14 06:39:37;;;;;;;41.25;29.35;;;;;;;;;;5017071;28;20018;-65
2021/03/14 06:42:04;;;;;;;39.10;27.60;;;;;;;;;;5016497;28;20030;-64
2021/03/14 06:44:31;;;;;;;29.00;21.15;;;;;;;;;;4998783;28;20145;-64
2021/03/14 06:46:57;;;;;;;86.82;61.13;;;;;;;;;;5016728;28;20082;-65
2021/03/14 06:49:25;;;;;;;50.20;35.60;;;;;;;;;;5016648;28;20100;-68
2021/03/14 06:51:54;;;;;;;41.30;29.95;;;;;;;;;;4998710;28;20073;-65
2021/03/14 06:54:25;;;;;;;57.42;42.28;;;;;;;;;;5016482;28;20018;-66
2021/03/14 06:57:08;;;;;;;41.63;27.48;;;;;;;;;;5016211;28;20065;-66
2021/03/14 06:59:39;;;;;;;72.65;47.55;;;;;;;;;;5014830;28;20018;-65
2021/03/14 07:02:06;;;;;;;78.97;42.58;;;;;;;;;;5016362;28;20493;-65
2021/03/14 07:04:33;;;;;;;138.70;65.65;;;;;;;;;;5016040;28;20033;-64
2021/03/14 07:07:00;;;;;;;108.53;53.40;;;;;;;;;;5016054;28;20026;-65
2021/03/14 07:09:26;;;;;;;94.10;46.00;;;;;;;;;;5015940;28;20045;-64
2021/03/14 07:11:53;;;;;;;196.10;86.82;;;;;;;;;;5016188;28;20017;-64
2021/03/14 07:14:20;;;;;;;145.82;67.93;;;;;;;;;;5016071;28;20026;-65
2021/03/14 07:16:54;;;;;;;120.78;65.93;;;;;;;;;;5016191;28;20029;-65
2021/03/14 07:19:24;;;;;;;86.32;53.92;;;;;;;;;;5015428;28;20092;-65
2021/03/14 07:22:01;;;;;;;61.78;43.13;;;;;;;;;;4996619;28;20109;-68
2021/03/14 07:24:40;;;;;;;39.90;30.37;;;;;;;;;;5016281;28;20021;-67
2021/03/14 07:27:07;;;;;;;20.73;14.45;;;;;;;;;;5015388;28;20029;-64
2021/03/14 07:29:36;;;;;;;32.53;21.23;;;;;;;;;;5015931;28;20046;-65
2021/03/14 07:32:03;;;;;;;31.88;24.02;;;;;;;;;;5015556;28;20020;-63
2021/03/14 07:34:30;;;;;;;27.83;22.00;;;;;;;;;;5015439;28;20375;-64
2021/03/14 07:36:57;;;;;;;25.08;18.63;;;;;;;;;;5015395;28;20046;-66
2021/03/14 07:39:23;;;;;;;31.65;23.05;;;;;;;;;;5015175;28;20018;-64
2021/03/14 07:41:50;;;;;;;30.02;20.95;;;;;;;;;;5015873;28;20531;-67
2021/03/14 07:44:23;;;;;;;33.45;23.15;;;;;;;;;;5015330;28;20022;-67
2021/03/14 07:46:49;;;;;;;31.73;21.73;;;;;;;;;;5015173;28;20032;-65
2021/03/14 07:49:16;;;;;;;35.70;24.63;;;;;;;;;;5015393;28;20014;-71
2021/03/14 07:51:45;;;;;;;34.25;23.35;;;;;;;;;;4996602;28;20072;-74
2021/03/14 07:54:11;;;;;;;32.80;21.50;;;;;;;;;;4995778;28;20017;-73
2021/03/14 07:56:38;;;;;;;58.67;28.33;;;;;;;;;;5014732;28;20029;-70
2021/03/14 07:59:06;;;;;;;67.68;28.20;;;;;;;;;;5015342;28;20025;-72
2021/03/14 08:01:34;;;;;;;139.48;65.57;;;;;;;;;;4997432;28;20022;-66
2021/03/14 08:04:00;;;;;;;79.45;35.88;;;;;;;;;;5015768;28;20351;-64
2021/03/14 08:06:42;;;;;;;50.55;29.15;;;;;;;;;;5014619;28;20018;-70
2021/03/14 08:09:08;;;;;;;85.68;52.63;;;;;;;;;;5013589;28;20018;-69
2021/03/14 08:11:34;;;;;;;111.10;68.57;;;;;;;;;;4996566;28;20360;-67
2021/03/14 08:14:00;;;;;;;45.00;26.58;;;;;;;;;;5014598;28;20032;-66
2021/03/14 08:16:26;;;;;;;35.80;22.02;;;;;;;;;;5015216;28;20029;-68
2021/03/14 08:18:53;;;;;;;17.10;14.10;;;;;;;;;;5015016;28;20080;-70
2021/03/14 08:21:22;;;;;;;22.55;14.65;;;;;;;;;;5013644;28;20414;-68
2021/03/14 08:23:52;;;;;;;20.90;12.25;;;;;;;;;;5014642;28;20026;-67
2021/03/14 08:26:28;;;;;;;29.20;14.88;;;;;;;;;;5014848;28;20018;-68
2021/03/14 08:28:55;;;;;;;23.17;12.45;;;;;;;;;;5014496;28;20404;-65
2021/03/14 08:31:36;;;;;;;13.60;8.43;;;;;;;;;;5014204;28;20031;-67
2021/03/14 08:34:03;;;;;;;10.60;6.63;;;;;;;;;;4996882;28;20022;-67
2021/03/14 08:36:34;;;;;;;13.90;7.83;;;;;;;;;;5013235;28;20112;-66
2021/03/14 08:39:00;;;;;;;13.32;7.72;;;;;;;;;;5013824;28;20259;-68
2021/03/14 08:41:37;;;;;;;19.85;9.15;;;;;;;;;;5014520;28;20026;-67
2021/03/14 08:44:06;;;;;;;18.05;9.38;;;;;;;;;;4996744;28;20475;-68
2021/03/14 08:46:51;;;;;;;14.95;7.70;;;;;;;;;;5014661;28;20030;-67
2021/03/14 08:49:18;;;;;;;14.10;7.47;;;;;;;;;;5013886;28;20022;-67
2021/03/14 08:51:44;;;;;;;13.73;8.95;;;;;;;;;;5013466;28;20022;-66
2021/03/14 08:54:11;;;;;;;11.53;8.03;;;;;;;;;;5014069;28;20101;-67
2021/03/14 08:56:37;;;;;;;14.63;8.75;;;;;;;;;;4996360;28;20532;-66
2021/03/14 08:59:09;;;;;;;12.98;9.18;;;;;;;;;;5010540;28;20018;-68
2021/03/14 09:01:36;;;;;;;20.00;13.45;;;;;;;;;;5014077;28;20030;-67
2021/03/14 09:04:12;;;;;;;19.42;13.70;;;;;;;;;;5013284;28;20100;-66
2021/03/14 09:06:39;;;;;;;19.25;11.30;;;;;;;;;;5013485;28;20049;-66
2021/03/14 09:09:06;;;;;;;21.17;10.55;;;;;;;;;;5012848;28;20033;-68
2021/03/14 09:11:52;;;;;;;17.98;10.48;;;;;;;;;;4994130;28;20022;-67
2021/03/14 09:14:37;;;;;;;17.15;10.63;;;;;;;;;;5007565;28;20054;-66
2021/03/14 09:17:06;;;;;;;23.60;11.57;;;;;;;;;;5013401;28;20534;-63
2021/03/14 09:19:51;;;;;;;19.85;13.43;;;;;;;;;;5013949;28;20018;-66
2021/03/14 09:22:19;;;;;;;20.50;13.70;;;;;;;;;;5012811;28;20018;-65
2021/03/14 09:24:49;;;;;;;29.38;16.55;;;;;;;;;;5013518;28;20014;-64
2021/03/14 09:27:15;;;;;;;20.33;12.48;;;;;;;;;;5013755;28;20030;-65
2021/03/14 09:29:43;;;;;;;15.57;9.82;;;;;;;;;;4995737;28;20072;-66
2021/03/14 09:32:20;;;;;;;15.50;9.93;;;;;;;;;;5013525;28;20043;-66
2021/03/14 09:34:47;;;;;;;15.63;9.38;;;;;;;;;;4996412;28;20486;-66
2021/03/14 09:37:26;;;;;;;26.50;15.98;;;;;;;;;;5013275;28;20018;-66
2021/03/14 09:40:06;;;;;;;16.45;9.30;;;;;;;;;;4995565;28;20029;-65
2021/03/14 09:42:32;;;;;;;13.35;7.57;;;;;;;;;;5014014;28;20064;-66
2021/03/14 09:45:05;;;;;;;16.40;8.82;;;;;;;;;;4995467;28;20028;-65
2021/03/14 09:47:31;;;;;;;17.88;10.18;;;;;;;;;;5013084;28;20026;-67
2021/03/14 09:50:06;;;;;;;16.85;9.73;;;;;;;;;;4996045;28;20018;-67
2021/03/14 09:52:33;;;;;;;20.40;11.98;;;;;;;;;;5013007;28;20022;-67
2021/03/14 09:54:59;;;;;;;19.50;11.48;;;;;;;;;;5013584;28;20033;-67
2021/03/14 09:57:26;;;;;;;13.40;8.55;;;;;;;;;;4995785;28;20029;-66
2021/03/14 09:59:52;;;;;;;14.90;8.13;;;;;;;;;;5012909;28;20140;-67
2021/03/14 10:02:18;;;;;;;11.73;7.30;;;;;;;;;;4995690;28;20464;-66
2021/03/14 10:04:45;;;;;;;12.15;5.60;;;;;;;;;;5012579;28;20029;-67
2021/03/14 10:07:21;;;;;;;15.60;8.50;;;;;;;;;;5005363;28;20045;-67
2021/03/14 10:09:48;;;;;;;18.58;9.80;;;;;;;;;;5004316;28;20029;-67
2021/03/14 10:12:14;;;;;;;18.17;11.60;;;;;;;;;;4985017;28;20045;-65
2021/03/14 10:14:41;;;;;;;16.35;10.65;;;;;;;;;;4999916;28;20089;-65
2021/03/14 10:17:07;;;;;;;18.17;11.95;;;;;;;;;;5002908;28;20025;-68
2021/03/14 10:19:33;;;;;;;19.30;11.68;;;;;;;;;;5001001;28;20105;-66
2021/03/14 10:21:59;;;;;;;16.90;11.88;;;;;;;;;;4994928;28;20026;-64
2021/03/14 10:24:31;;;;;;;13.60;8.93;;;;;;;;;;5013101;28;20026;-65
2021/03/14 10:26:59;;;;;;;16.58;8.77;;;;;;;;;;5012792;28;20045;-65
2021/03/14 10:29:33;;;;;;;17.83;9.60;;;;;;;;;;4995313;28;20050;-64
2021/03/14 10:31:59;;;;;;;14.23;8.43;;;;;;;;;;5012544;28;20022;-64
2021/03/14 10:34:26;;;;;;;16.17;8.98;;;;;;;;;;5017153;28;20060;-67
2021/03/14 10:36:53;;;;;;;16.25;8.73;;;;;;;;;;5016825;28;20105;-63
2021/03/14 10:39:29;;;;;;;15.23;10.00;;;;;;;;;;5013053;28;20108;-64
2021/03/14 10:41:56;;;;;;;14.63;10.73;;;;;;;;;;5017929;28;20081;-68
2021/03/14 10:44:23;;;;;;;18.05;9.90;;;;;;;;;;5008121;28;20017;-65
2021/03/14 10:46:54;;;;;;;15.90;8.18;;;;;;;;;;5014447;28;20041;-68
2021/03/14 10:49:30;;;;;;;10.27;6.88;;;;;;;;;;5014643;28;20050;-63
2021/03/14 10:52:00;;;;;;;21.52;9.70;;;;;;;;;;5005873;28;20072;-64
2021/03/14 10:54:33;;;;;;;21.23;12.13;;;;;;;;;;5005952;28;20014;-65
2021/03/14 10:56:59;;;;;;;24.92;13.20;;;;;;;;;;5011065;28;20026;-68
2021/03/14 10:59:26;;;;;;;27.67;14.70;;;;;;;;;;5016357;28;20109;-64
2021/03/14 11:01:56;;;;;;;62.80;47.42;;;;;;;;;;4998167;28;20033;-66
2021/03/14 11:04:26;;;;;;;23.65;14.48;;;;;;;;;;5011466;28;20025;-67
2021/03/14 11:06:52;;;;;;;18.58;10.13;;;;;;;;;;5003517;28;20026;-65
2021/03/14 11:09:19;;;;;;;14.57;9.93;;;;;;;;;;5012932;28;20024;-70
2021/03/14 11:11:49;;;;;;;22.25;12.80;;;;;;;;;;5014865;28;20030;-69
2021/03/14 11:14:24;;;;;;;14.27;9.80;;;;;;;;;;5015693;28;20029;-69
2021/03/14 11:17:09;;;;;;;10.43;6.40;;;;;;;;;;4998099;28;20037;-68
2021/03/14 11:19:36;;;;;;;17.70;9.93;;;;;;;;;;4998281;28;20100;-68
2021/03/14 11:22:02;;;;;;;15.85;9.90;;;;;;;;;;4998251;28;20033;-68
2021/03/14 11:24:28;;;;;;;20.90;11.50;;;;;;;;;;5014875;28;20414;-69
2021/03/14 11:26:54;;;;;;;24.08;11.15;;;;;;;;;;5015301;28;20352;-66
2021/03/14 11:29:20;;;;;;;14.13;8.73;;;;;;;;;;4997825;28;20133;-67
2021/03/14 11:31:46;;;;;;;18.85;11.77;;;;;;;;;;5014834;28;20018;-70
2021/03/14 11:34:13;;;;;;;35.35;15.48;;;;;;;;;;5006678;28;20034;-68
2021/03/14 11:36:39;;;;;;;16.33;9.80;;;;;;;;;;4988997;28;20117;-66
2021/03/14 11:39:05;;;;;;;23.23;11.07;;;;;;;;;;4988256;28;20359;-65
2021/03/14 11:41:35;;;;;;;13.43;9.20;;;;;;;;;;5003622;28;20021;-61
2021/03/14 11:44:01;;;;;;;13.95;7.68;;;;;;;;;;5004002;28;20029;-61
2021/03/14 11:46:28;;;;;;;16.00;9.37;;;;;;;;;;5004611;28;20129;-63
2021/03/14 11:48:54;;;;;;;14.48;7.90;;;;;;;;;;5004573;28;20581;-68
2021/03/14 11:51:20;;;;;;;12.02;5.10;;;;;;;;;;5006824;28;20021;-65
2021/03/14 11:53:46;;;;;;;9.77;4.47;;;;;;;;;;5005290;28;20022;-65
2021/03/14 11:56:13;;;;;;;6.40;3.78;;;;;;;;;;5002996;28;20018;-62
2021/03/14 11:58:39;;;;;;;13.57;6.47;;;;;;;;;;5005410;28;20530;-63
2021/03/14 12:01:06;;;;;;;18.47;7.97;;;;;;;;;;5003051;28;20452;-64
2021/03/14 12:03:32;;;;;;;6.40;3.58;;;;;;;;;;5001726;28;20072;-65
2021/03/14 12:05:58;;;;;;;14.02;5.05;;;;;;;;;;5004042;28;20026;-65
2021/03/14 12:08:24;;;;;;;8.27;4.05;;;;;;;;;;5014503;28;20072;-64
2021/03/14 12:10:50;;;;;;;6.95;2.60;;;;;;;;;;5008165;28;20077;-64
2021/03/14 12:13:17;;;;;;;5.18;2.80;;;;;;;;;;5001185;28;20018;-68
2021/03/14 12:15:43;;;;;;;7.63;2.95;;;;;;;;;;5002490;28;20076;-64
2021/03/14 12:18:09;;;;;;;5.22;2.10;;;;;;;;;;5014053;28;20030;-65
2021/03/14 12:20:37;;;;;;;8.10;4.53;;;;;;;;;;5014493;28;20052;-64
2021/03/14 12:23:03;;;;;;;10.80;4.07;;;;;;;;;;5014235;28;20474;-68
2021/03/14 12:25:29;;;;;;;4.68;2.67;;;;;;;;;;4997260;28;20026;-67
2021/03/14 12:27:55;;;;;;;8.65;4.18;;;;;;;;;;5015502;28;20459;-67
2021/03/14 12:30:22;;;;;;;6.88;4.30;;;;;;;;;;5013307;28;20041;-65
2021/03/14 12:32:48;;;;;;;12.07;6.35;;;;;;;;;;5014478;28;20018;-66
2021/03/14 12:35:14;;;;;;;6.00;2.55;;;;;;;;;;5009561;28;20030;-64
2021/03/14 12:37:40;;;;;;;7.25;2.65;;;;;;;;;;5003147;28;20029;-64
2021/03/14 12:40:06;;;;;;;4.43;3.15;;;;;;;;;;5002932;28;20017;-64
2021/03/14 12:42:33;;;;;;;6.10;2.77;;;;;;;;;;5002666;28;20025;-65
2021/03/14 12:44:59;;;;;;;4.93;1.90;;;;;;;;;;5001415;28;20022;-66
2021/03/14 12:47:26;;;;;;;8.40;3.25;;;;;;;;;;5003255;28;20046;-66
2021/03/14 12:49:53;;;;;;;5.28;2.97;;;;;;;;;;5005672;28;20487;-67
2021/03/14 12:52:19;;;;;;;8.93;4.03;;;;;;;;;;5003972;28;20036;-66
2021/03/14 12:54:45;;;;;;;11.43;5.23;;;;;;;;;;5004249;28;20113;-65
2021/03/14 12:57:13;;;;;;;7.22;3.83;;;;;;;;;;5001795;28;20097;-62
2021/03/14 12:59:39;;;;;;;5.38;2.83;;;;;;;;;;5003829;28;20026;-68
2021/03/14 13:02:05;;;;;;;8.55;3.55;;;;;;;;;;4997027;28;20068;-70
2021/03/14 13:04:31;;;;;;;7.78;3.63;;;;;;;;;;4994020;28;20018;-69
2021/03/14 13:06:58;;;;;;;7.88;4.07;;;;;;;;;;4994530;28;20014;-68
2021/03/14 13:09:24;;;;;;;8.23;4.53;;;;;;;;;;4996064;28;20018;-67
2021/03/14 13:11:50;;;;;;;5.20;3.50;;;;;;;;;;4996209;28;20022;-69
2021/03/14 13:14:16;;;;;;;13.88;6.72;;;;;;;;;;5014082;28;20022;-72
2021/03/14 13:16:42;;;;;;;5.55;3.78;;;;;;;;;;4987264;28;20371;-67
2021/03/14 13:19:08;;;;;;;15.18;8.35;;;;;;;;;;5010882;28;20026;-67
2021/03/14 13:21:34;;;;;;;64.55;45.67;;;;;;;;;;5013541;28;20047;-63
2021/03/14 13:24:02;;;;;;;19.08;10.93;;;;;;;;;;5013525;28;20014;-66
2021/03/14 13:26:28;;;;;;;17.42;12.00;;;;;;;;;;5012142;28;20490;-66
2021/03/14 13:28:55;;;;;;;6.15;3.92;;;;;;;;;;5010560;28;20510;-63
2021/03/14 13:31:22;;;;;;;7.72;4.95;;;;;;;;;;4988390;28;20037;-64
2021/03/14 13:33:48;;;;;;;17.40;11.68;;;;;;;;;;5003229;28;20094;-62
2021/03/14 13:36:14;;;;;;;32.70;26.08;;;;;;;;;;5002271;28;20058;-61
2021/03/14 13:38:43;;;;;;;63.30;42.60;;;;;;;;;;5013892;28;20538;-62
2021/03/14 13:41:10;;;;;;;54.25;39.63;;;;;;;;;;5013242;28;20073;-66
2021/03/14 13:43:37;;;;;;;;;;;;;;;;;;5013905;28;20010;-63
2021/03/14 13:46:05;;;;;;;80.78;55.38;;;;;;;;;;5013660;28;19944;-62
2021/03/14 13:48:31;;;;;;;51.45;37.53;;;;;;;;;;5013480;28;20022;-63
2021/03/14 13:50:58;;;;;;;23.00;16.85;;;;;;;;;;5013383;28;20366;-63
2021/03/14 13:53:24;;;;;;;71.78;53.05;;;;;;;;;;5013826;28;20026;-63
2021/03/14 13:55:50;;;;;;;69.65;55.50;;;;;;;;;;5012631;28;20034;-62
2021/03/14 13:58:16;;;;;;;40.42;29.63;;;;;;;;;;5011189;28;20026;-62
2021/03/14 14:00:42;;;;;;;61.85;46.67;;;;;;;;;;5010672;28;20111;-62
2021/03/14 14:03:08;;;;;;;47.85;31.15;;;;;;;;;;5012340;28;20021;-64
2021/03/14 14:05:34;;;;;;;65.65;47.85;;;;;;;;;;5012866;28;20026;-63
2021/03/14 14:08:00;;;;;;;28.85;18.50;;;;;;;;;;5011314;28;20518;-63
2021/03/14 14:10:27;;;;;;;42.88;27.27;;;;;;;;;;5013260;28;20526;-63
2021/03/14 14:12:53;;;;;;;28.20;16.07;;;;;;;;;;5014414;28;20061;-63
2021/03/14 14:15:20;;;;;;;21.42;10.77;;;;;;;;;;5014336;28;20040;-64
2021/03/14 14:17:46;;;;;;;38.50;24.00;;;;;;;;;;5014954;28;20025;-64
2021/03/14 14:20:12;;;;;;;24.98;13.88;;;;;;;;;;5015201;28;20620;-62
2021/03/14 14:22:38;;;;;;;46.05;25.67;;;;;;;;;;5015537;28;20017;-63
2021/03/14 14:25:05;;;;;;;27.83;13.60;;;;;;;;;;5017112;28;20026;-63